sensor_id;sensor_type;location;lat;lon;timestamp;P1;P2;P0
70554;PMS5003;58104;52.744;15.242;2024-01-15T00:01:26;11;11;
70554;PMS5003;58104;52.744;15.242;2024-01-15T00:03:52;15;14;
70554;PMS5003;58104;52.744;15.242;2024-01-15T00:06:17;10;9;
70554;PMS5003;58104;52.744;15.242;2024-01-15T00:08:43;10;8;
70554;PMS5003;58104;52.744;15.242;2024-01-15T00:11:08;9;9;
70554;PMS5003;58104;52.744;15.242;2024-01-15T00:13:34;13;10;
70554;PMS5003;58104;52.744;15.242;2024-01-15T00:15:59;15;14;
70554;PMS5003;58104;52.744;15.242;2024-01-15T00:18:25;11;10;
70554;PMS5003;58104;52.744;15.242;2024-01-15T00:20:50;12;12;
70554;PMS5003;58104;52.744;15.242;2024-01-15T00:23:15;15;10;
70554;PMS5003;58104;52.744;15.242;2024-01-15T00:25:41;11;11;
70554;PMS5003;58104;52.744;15.242;2024-01-15T00:28:06;11;11;
70554;PMS5003;58104;52.744;15.242;2024-01-15T00:30:32;14;12;
70554;PMS5003;58104;52.744;15.242;2024-01-15T00:32:57;12;11;
70554;PMS5003;58104;52.744;15.242;2024-01-15T00:35:23;15;13;
70554;PMS5003;58104;52.744;15.242;2024-01-15T00:37:48;11;10;
70554;PMS5003;58104;52.744;15.242;2024-01-15T00:40:13;10;10;
70554;PMS5003;58104;52.744;15.242;2024-01-15T00:42:39;13;9;
70554;PMS5003;58104;52.744;15.242;2024-01-15T00:45:05;11;11;
70554;PMS5003;58104;52.744;15.242;2024-01-15T00:47:30;14;14;
70554;PMS5003;58104;52.744;15.242;2024-01-15T00:49:55;10;10;
70554;PMS5003;58104;52.744;15.242;2024-01-15T00:52:21;11;11;
70554;PMS5003;58104;52.744;15.242;2024-01-15T00:54:46;15;11;
70554;PMS5003;58104;52.744;15.242;2024-01-15T00:57:12;10;10;
70554;PMS5003;58104;52.744;15.242;2024-01-15T00:59:37;15;14;
70554;PMS5003;58104;52.744;15.242;2024-01-15T01:02:03;14;14;
70554;PMS5003;58104;52.744;15.242;2024-01-15T01:04:28;10;9;
70554;PMS5003;58104;52.744;15.242;2024-01-15T01:06:53;11;10;
70554;PMS5003;58104;52.744;15.242;2024-01-15T01:09:19;15;13;
70554;PMS5003;58104;52.744;15.242;2024-01-15T01:11:44;10;10;
70554;PMS5003;58104;52.744;15.242;2024-01-15T01:14:10;13;12;
70554;PMS5003;58104;52.744;15.242;2024-01-15T01:16:35;10;9;
70554;PMS5003;58104;52.744;15.242;2024-01-15T01:19:00;9;9;
70554;PMS5003;58104;52.744;15.242;2024-01-15T01:21:26;15;13;
70554;PMS5003;58104;52.744;15.242;2024-01-15T01:23:51;16;12;
70554;PMS5003;58104;52.744;15.242;2024-01-15T01:26:17;12;12;
70554;PMS5003;58104;52.744;15.242;2024-01-15T01:28:42;12;10;
70554;PMS5003;58104;52.744;15.242;2024-01-15T01:31:08;11;10;
70554;PMS5003;58104;52.744;15.242;2024-01-15T01:33:33;10;10;
70554;PMS5003;58104;52.744;15.242;2024-01-15T01:35:59;13;10;
70554;PMS5003;58104;52.744;15.242;2024-01-15T01:38:24;14;12;
70554;PMS5003;58104;52.744;15.242;2024-01-15T01:40:49;14;14;
70554;PMS5003;58104;52.744;15.242;2024-01-15T01:43:15;8;8;
70554;PMS5003;58104;52.744;15.242;2024-01-15T01:45:40;15;15;
70554;PMS5003;58104;52.744;15.242;2024-01-15T01:48:06;12;11;
70554;PMS5003;58104;52.744;15.242;2024-01-15T01:50:31;10;10;
70554;PMS5003;58104;52.744;15.242;2024-01-15T01:52:56;14;13;
70554;PMS5003;58104;52.744;15.242;2024-01-15T01:55:22;12;12;
70554;PMS5003;58104;52.744;15.242;2024-01-15T01:57:47;11;11;
70554;PMS5003;58104;52.744;15.242;2024-01-15T02:00:13;13;11;
70554;PMS5003;58104;52.744;15.242;2024-01-15T02:02:38;11;11;
70554;PMS5003;58104;52.744;15.242;2024-01-15T02:05:03;15;12;
70554;PMS5003;58104;52.744;15.242;2024-01-15T02:07:29;10;9;
70554;PMS5003;58104;52.744;15.242;2024-01-15T02:09:54;14;14;
70554;PMS5003;58104;52.744;15.242;2024-01-15T02:12:19;9;9;
70554;PMS5003;58104;52.744;15.242;2024-01-15T02:14:45;12;11;
70554;PMS5003;58104;52.744;15.242;2024-01-15T02:17:10;12;11;
70554;PMS5003;58104;52.744;15.242;2024-01-15T02:19:36;13;9;
70554;PMS5003;58104;52.744;15.242;2024-01-15T02:22:01;10;10;
70554;PMS5003;58104;52.744;15.242;2024-01-15T02:24:27;10;9;
70554;PMS5003;58104;52.744;15.242;2024-01-15T02:26:52;12;9;
70554;PMS5003;58104;52.744;15.242;2024-01-15T02:29:18;10;9;
70554;PMS5003;58104;52.744;15.242;2024-01-15T02:31:43;8;8;
70554;PMS5003;58104;52.744;15.242;2024-01-15T02:34:09;10;9;
70554;PMS5003;58104;52.744;15.242;2024-01-15T02:36:34;12;9;
70554;PMS5003;58104;52.744;15.242;2024-01-15T02:39:00;9;8;
70554;PMS5003;58104;52.744;15.242;2024-01-15T02:41:26;9;8;
70554;PMS5003;58104;52.744;15.242;2024-01-15T02:43:51;10;8;
70554;PMS5003;58104;52.744;15.242;2024-01-15T02:46:16;8;8;
70554;PMS5003;58104;52.744;15.242;2024-01-15T02:48:42;11;8;
70554;PMS5003;58104;52.744;15.242;2024-01-15T02:51:07;8;8;
70554;PMS5003;58104;52.744;15.242;2024-01-15T02:53:33;11;10;
70554;PMS5003;58104;52.744;15.242;2024-01-15T02:55:58;9;9;
70554;PMS5003;58104;52.744;15.242;2024-01-15T02:58:23;15;15;
70554;PMS5003;58104;52.744;15.242;2024-01-15T03:00:49;12;12;
70554;PMS5003;58104;52.744;15.242;2024-01-15T03:03:14;7;7;
70554;PMS5003;58104;52.744;15.242;2024-01-15T03:05:40;8;8;
70554;PMS5003;58104;52.744;15.242;2024-01-15T03:08:05;8;6;
70554;PMS5003;58104;52.744;15.242;2024-01-15T03:10:31;8;5;
70554;PMS5003;58104;52.744;15.242;2024-01-15T03:12:57;8;8;
70554;PMS5003;58104;52.744;15.242;2024-01-15T03:15:22;8;6;
70554;PMS5003;58104;52.744;15.242;2024-01-15T03:17:47;8;6;
70554;PMS5003;58104;52.744;15.242;2024-01-15T03:20:12;5;5;
70554;PMS5003;58104;52.744;15.242;2024-01-15T03:22:38;6;6;
70554;PMS5003;58104;52.744;15.242;2024-01-15T03:25:04;7;7;
70554;PMS5003;58104;52.744;15.242;2024-01-15T03:27:29;6;6;
70554;PMS5003;58104;52.744;15.242;2024-01-15T03:29:54;8;6;
70554;PMS5003;58104;52.744;15.242;2024-01-15T03:32:20;6;6;
70554;PMS5003;58104;52.744;15.242;2024-01-15T03:34:45;7;7;
70554;PMS5003;58104;52.744;15.242;2024-01-15T03:37:11;6;6;
70554;PMS5003;58104;52.744;15.242;2024-01-15T03:39:36;7;7;
70554;PMS5003;58104;52.744;15.242;2024-01-15T03:42:02;6;6;
70554;PMS5003;58104;52.744;15.242;2024-01-15T03:44:27;8;7;
70554;PMS5003;58104;52.744;15.242;2024-01-15T03:46:53;8;6;
70554;PMS5003;58104;52.744;15.242;2024-01-15T03:49:18;8;7;
70554;PMS5003;58104;52.744;15.242;2024-01-15T03:51:44;5;5;
70554;PMS5003;58104;52.744;15.242;2024-01-15T03:54:09;6;6;
70554;PMS5003;58104;52.744;15.242;2024-01-15T03:56:35;6;6;
70554;PMS5003;58104;52.744;15.242;2024-01-15T03:59:00;8;5;
70554;PMS5003;58104;52.744;15.242;2024-01-15T04:01:26;7;6;
70554;PMS5003;58104;52.744;15.242;2024-01-15T04:03:51;6;6;
70554;PMS5003;58104;52.744;15.242;2024-01-15T04:06:17;7;7;
70554;PMS5003;58104;52.744;15.242;2024-01-15T04:08:42;5;5;
70554;PMS5003;58104;52.744;15.242;2024-01-15T04:11:08;11;8;
70554;PMS5003;58104;52.744;15.242;2024-01-15T04:13:33;6;6;
70554;PMS5003;58104;52.744;15.242;2024-01-15T04:15:59;7;7;
70554;PMS5003;58104;52.744;15.242;2024-01-15T04:18:24;7;6;
70554;PMS5003;58104;52.744;15.242;2024-01-15T04:20:49;4;4;
70554;PMS5003;58104;52.744;15.242;2024-01-15T04:23:15;12;12;
70554;PMS5003;58104;52.744;15.242;2024-01-15T04:25:41;7;7;
70554;PMS5003;58104;52.744;15.242;2024-01-15T04:28:06;9;9;
70554;PMS5003;58104;52.744;15.242;2024-01-15T04:30:32;7;6;
70554;PMS5003;58104;52.744;15.242;2024-01-15T04:32:57;8;8;
70554;PMS5003;58104;52.744;15.242;2024-01-15T04:35:23;7;7;
70554;PMS5003;58104;52.744;15.242;2024-01-15T04:37:48;9;7;
70554;PMS5003;58104;52.744;15.242;2024-01-15T04:40:15;10;8;
70554;PMS5003;58104;52.744;15.242;2024-01-15T04:42:39;9;8;
70554;PMS5003;58104;52.744;15.242;2024-01-15T04:45:05;11;9;
70554;PMS5003;58104;52.744;15.242;2024-01-15T04:47:30;8;7;
70554;PMS5003;58104;52.744;15.242;2024-01-15T04:49:56;14;11;
70554;PMS5003;58104;52.744;15.242;2024-01-15T04:52:21;9;8;
70554;PMS5003;58104;52.744;15.242;2024-01-15T04:54:47;11;10;
70554;PMS5003;58104;52.744;15.242;2024-01-15T04:57:12;10;6;
70554;PMS5003;58104;52.744;15.242;2024-01-15T04:59:38;11;9;
70554;PMS5003;58104;52.744;15.242;2024-01-15T05:02:03;12;9;
70554;PMS5003;58104;52.744;15.242;2024-01-15T05:04:29;10;8;
70554;PMS5003;58104;52.744;15.242;2024-01-15T05:06:55;10;8;
70554;PMS5003;58104;52.744;15.242;2024-01-15T05:09:20;10;8;
70554;PMS5003;58104;52.744;15.242;2024-01-15T05:11:45;11;11;
70554;PMS5003;58104;52.744;15.242;2024-01-15T05:14:10;9;9;
70554;PMS5003;58104;52.744;15.242;2024-01-15T05:16:38;10;10;
70554;PMS5003;58104;52.744;15.242;2024-01-15T05:19:02;8;7;
70554;PMS5003;58104;52.744;15.242;2024-01-15T05:21:27;11;10;
70554;PMS5003;58104;52.744;15.242;2024-01-15T05:23:52;12;12;
70554;PMS5003;58104;52.744;15.242;2024-01-15T05:26:18;11;8;
70554;PMS5003;58104;52.744;15.242;2024-01-15T05:28:44;10;10;
70554;PMS5003;58104;52.744;15.242;2024-01-15T05:31:09;11;8;
70554;PMS5003;58104;52.744;15.242;2024-01-15T05:33:35;8;7;
70554;PMS5003;58104;52.744;15.242;2024-01-15T05:36:00;6;6;
70554;PMS5003;58104;52.744;15.242;2024-01-15T05:38:26;9;7;
70554;PMS5003;58104;52.744;15.242;2024-01-15T05:40:51;8;8;
70554;PMS5003;58104;52.744;15.242;2024-01-15T05:43:16;7;7;
70554;PMS5003;58104;52.744;15.242;2024-01-15T05:45:42;5;5;
70554;PMS5003;58104;52.744;15.242;2024-01-15T05:48:07;7;7;
70554;PMS5003;58104;52.744;15.242;2024-01-15T05:50:33;6;5;
70554;PMS5003;58104;52.744;15.242;2024-01-15T05:52:58;10;10;
70554;PMS5003;58104;52.744;15.242;2024-01-15T05:55:24;5;5;
70554;PMS5003;58104;52.744;15.242;2024-01-15T05:57:49;7;7;
70554;PMS5003;58104;52.744;15.242;2024-01-15T06:00:15;11;8;
70554;PMS5003;58104;52.744;15.242;2024-01-15T06:02:40;10;8;
70554;PMS5003;58104;52.744;15.242;2024-01-15T06:05:06;7;5;
70554;PMS5003;58104;52.744;15.242;2024-01-15T06:07:31;10;10;
70554;PMS5003;58104;52.744;15.242;2024-01-15T06:09:56;9;9;
70554;PMS5003;58104;52.744;15.242;2024-01-15T06:12:22;6;6;
70554;PMS5003;58104;52.744;15.242;2024-01-15T06:14:47;9;8;
70554;PMS5003;58104;52.744;15.242;2024-01-15T06:17:14;8;8;
70554;PMS5003;58104;52.744;15.242;2024-01-15T06:19:38;7;5;
70554;PMS5003;58104;52.744;15.242;2024-01-15T06:22:04;7;7;
70554;PMS5003;58104;52.744;15.242;2024-01-15T06:24:29;8;6;
70554;PMS5003;58104;52.744;15.242;2024-01-15T06:26:55;8;6;
70554;PMS5003;58104;52.744;15.242;2024-01-15T06:29:20;10;8;
70554;PMS5003;58104;52.744;15.242;2024-01-15T06:31:46;7;7;
70554;PMS5003;58104;52.744;15.242;2024-01-15T06:34:11;6;4;
70554;PMS5003;58104;52.744;15.242;2024-01-15T06:36:37;72;64;
70554;PMS5003;58104;52.744;15.242;2024-01-15T06:39:03;211;195;
70554;PMS5003;58104;52.744;15.242;2024-01-15T06:41:28;27;26;
70554;PMS5003;58104;52.744;15.242;2024-01-15T06:43:54;33;30;
70554;PMS5003;58104;52.744;15.242;2024-01-15T06:46:20;141;136;
70554;PMS5003;58104;52.744;15.242;2024-01-15T06:48:45;198;189;
70554;PMS5003;58104;52.744;15.242;2024-01-15T06:51:11;305;285;
70554;PMS5003;58104;52.744;15.242;2024-01-15T06:53:37;411;390;
70554;PMS5003;58104;52.744;15.242;2024-01-15T06:56:01;773;693;
70554;PMS5003;58104;52.744;15.242;2024-01-15T06:58:27;632;572;
70554;PMS5003;58104;52.744;15.242;2024-01-15T07:00:53;523;474;
70554;PMS5003;58104;52.744;15.242;2024-01-15T07:03:19;431;408;
70554;PMS5003;58104;52.744;15.242;2024-01-15T07:05:44;335;313;
70554;PMS5003;58104;52.744;15.242;2024-01-15T07:08:09;309;288;
70554;PMS5003;58104;52.744;15.242;2024-01-15T07:10:35;273;259;
70554;PMS5003;58104;52.744;15.242;2024-01-15T07:13:00;437;396;
70554;PMS5003;58104;52.744;15.242;2024-01-15T07:15:26;281;268;
70554;PMS5003;58104;52.744;15.242;2024-01-15T07:17:55;255;234;
70554;PMS5003;58104;52.744;15.242;2024-01-15T07:20:17;217;208;
70554;PMS5003;58104;52.744;15.242;2024-01-15T07:22:42;161;155;
70554;PMS5003;58104;52.744;15.242;2024-01-15T07:25:07;199;185;
70554;PMS5003;58104;52.744;15.242;2024-01-15T07:27:33;193;183;
70554;PMS5003;58104;52.744;15.242;2024-01-15T07:29:59;191;178;
70554;PMS5003;58104;52.744;15.242;2024-01-15T07:32:24;214;195;
70554;PMS5003;58104;52.744;15.242;2024-01-15T07:34:49;195;173;
70554;PMS5003;58104;52.744;15.242;2024-01-15T07:37:14;158;140;
70554;PMS5003;58104;52.744;15.242;2024-01-15T07:39:39;138;124;
70554;PMS5003;58104;52.744;15.242;2024-01-15T07:42:05;109;102;
70554;PMS5003;58104;52.744;15.242;2024-01-15T07:44:30;149;138;
70554;PMS5003;58104;52.744;15.242;2024-01-15T07:46:56;122;113;
70554;PMS5003;58104;52.744;15.242;2024-01-15T07:49:21;98;90;
70554;PMS5003;58104;52.744;15.242;2024-01-15T07:51:46;118;111;
70554;PMS5003;58104;52.744;15.242;2024-01-15T07:54:12;87;82;
70554;PMS5003;58104;52.744;15.242;2024-01-15T07:59:03;87;84;
70554;PMS5003;58104;52.744;15.242;2024-01-15T08:01:28;92;83;
70554;PMS5003;58104;52.744;15.242;2024-01-15T08:03:54;63;62;
70554;PMS5003;58104;52.744;15.242;2024-01-15T08:06:22;63;59;
70554;PMS5003;58104;52.744;15.242;2024-01-15T08:08:45;76;73;
70554;PMS5003;58104;52.744;15.242;2024-01-15T08:11:11;64;57;
70554;PMS5003;58104;52.744;15.242;2024-01-15T08:13:36;52;47;
70554;PMS5003;58104;52.744;15.242;2024-01-15T08:16:01;62;62;
70554;PMS5003;58104;52.744;15.242;2024-01-15T08:18:27;62;59;
70554;PMS5003;58104;52.744;15.242;2024-01-15T08:20:52;50;43;
70554;PMS5003;58104;52.744;15.242;2024-01-15T08:23:18;51;49;
70554;PMS5003;58104;52.744;15.242;2024-01-15T08:25:43;56;49;
70554;PMS5003;58104;52.744;15.242;2024-01-15T08:28:09;43;37;
70554;PMS5003;58104;52.744;15.242;2024-01-15T08:30:35;40;36;
70554;PMS5003;58104;52.744;15.242;2024-01-15T08:32:59;34;31;
70554;PMS5003;58104;52.744;15.242;2024-01-15T08:35:25;40;37;
70554;PMS5003;58104;52.744;15.242;2024-01-15T08:37:50;36;33;
70554;PMS5003;58104;52.744;15.242;2024-01-15T08:40:16;31;31;
70554;PMS5003;58104;52.744;15.242;2024-01-15T08:42:42;23;23;
70554;PMS5003;58104;52.744;15.242;2024-01-15T08:45:07;20;19;
70554;PMS5003;58104;52.744;15.242;2024-01-15T08:47:33;30;27;
70554;PMS5003;58104;52.744;15.242;2024-01-15T08:49:58;23;23;
70554;PMS5003;58104;52.744;15.242;2024-01-15T08:52:24;27;23;
70554;PMS5003;58104;52.744;15.242;2024-01-15T08:54:50;21;19;
70554;PMS5003;58104;52.744;15.242;2024-01-15T08:57:15;25;24;
70554;PMS5003;58104;52.744;15.242;2024-01-15T08:59:40;23;23;
70554;PMS5003;58104;52.744;15.242;2024-01-15T09:02:06;22;20;
70554;PMS5003;58104;52.744;15.242;2024-01-15T09:04:32;16;16;
70554;PMS5003;58104;52.744;15.242;2024-01-15T09:06:57;15;15;
70554;PMS5003;58104;52.744;15.242;2024-01-15T09:09:22;20;17;
70554;PMS5003;58104;52.744;15.242;2024-01-15T09:11:48;20;18;
70554;PMS5003;58104;52.744;15.242;2024-01-15T09:14:13;16;15;
70554;PMS5003;58104;52.744;15.242;2024-01-15T09:16:38;14;13;
70554;PMS5003;58104;52.744;15.242;2024-01-15T09:19:04;16;15;
70554;PMS5003;58104;52.744;15.242;2024-01-15T09:21:29;18;15;
70554;PMS5003;58104;52.744;15.242;2024-01-15T09:23:54;16;14;
70554;PMS5003;58104;52.744;15.242;2024-01-15T09:26:19;11;11;
70554;PMS5003;58104;52.744;15.242;2024-01-15T09:28:45;14;14;
70554;PMS5003;58104;52.744;15.242;2024-01-15T09:31:10;22;19;
70554;PMS5003;58104;52.744;15.242;2024-01-15T09:33:36;11;11;
70554;PMS5003;58104;52.744;15.242;2024-01-15T09:36:02;12;10;
70554;PMS5003;58104;52.744;15.242;2024-01-15T09:38:27;16;13;
70554;PMS5003;58104;52.744;15.242;2024-01-15T09:40:52;11;11;
70554;PMS5003;58104;52.744;15.242;2024-01-15T09:43:17;11;11;
70554;PMS5003;58104;52.744;15.242;2024-01-15T09:45:43;11;10;
70554;PMS5003;58104;52.744;15.242;2024-01-15T09:48:08;11;10;
70554;PMS5003;58104;52.744;15.242;2024-01-15T09:50:34;14;12;
70554;PMS5003;58104;52.744;15.242;2024-01-15T09:52:59;13;12;
70554;PMS5003;58104;52.744;15.242;2024-01-15T09:55:25;18;14;
70554;PMS5003;58104;52.744;15.242;2024-01-15T09:57:50;11;11;
70554;PMS5003;58104;52.744;15.242;2024-01-15T10:00:17;10;9;
70554;PMS5003;58104;52.744;15.242;2024-01-15T10:02:41;13;13;
70554;PMS5003;58104;52.744;15.242;2024-01-15T10:05:07;11;11;
70554;PMS5003;58104;52.744;15.242;2024-01-15T10:07:32;10;10;
70554;PMS5003;58104;52.744;15.242;2024-01-15T10:09:57;13;11;
70554;PMS5003;58104;52.744;15.242;2024-01-15T10:12:23;11;9;
70554;PMS5003;58104;52.744;15.242;2024-01-15T10:14:48;13;10;
70554;PMS5003;58104;52.744;15.242;2024-01-15T10:17:14;8;8;
70554;PMS5003;58104;52.744;15.242;2024-01-15T10:19:39;7;7;
70554;PMS5003;58104;52.744;15.242;2024-01-15T10:22:04;10;8;
70554;PMS5003;58104;52.744;15.242;2024-01-15T10:24:30;13;8;
70554;PMS5003;58104;52.744;15.242;2024-01-15T10:29:21;5;5;
70554;PMS5003;58104;52.744;15.242;2024-01-15T10:31:47;6;6;
70554;PMS5003;58104;52.744;15.242;2024-01-15T10:34:12;9;7;
70554;PMS5003;58104;52.744;15.242;2024-01-15T10:36:38;6;6;
70554;PMS5003;58104;52.744;15.242;2024-01-15T10:39:03;10;8;
70554;PMS5003;58104;52.744;15.242;2024-01-15T10:41:28;10;7;
70554;PMS5003;58104;52.744;15.242;2024-01-15T10:43:54;7;7;
70554;PMS5003;58104;52.744;15.242;2024-01-15T10:46:19;8;8;
70554;PMS5003;58104;52.744;15.242;2024-01-15T10:48:44;11;9;
70554;PMS5003;58104;52.744;15.242;2024-01-15T10:51:10;8;8;
70554;PMS5003;58104;52.744;15.242;2024-01-15T10:53:35;7;7;
70554;PMS5003;58104;52.744;15.242;2024-01-15T10:56:01;12;8;
70554;PMS5003;58104;52.744;15.242;2024-01-15T10:58:26;7;7;
70554;PMS5003;58104;52.744;15.242;2024-01-15T11:00:52;8;5;
70554;PMS5003;58104;52.744;15.242;2024-01-15T11:03:17;10;9;
70554;PMS5003;58104;52.744;15.242;2024-01-15T11:05:43;7;6;
70554;PMS5003;58104;52.744;15.242;2024-01-15T11:08:09;12;9;
70554;PMS5003;58104;52.744;15.242;2024-01-15T11:10:39;9;8;
70554;PMS5003;58104;52.744;15.242;2024-01-15T11:12:59;7;5;
70554;PMS5003;58104;52.744;15.242;2024-01-15T11:15:24;11;8;
70554;PMS5003;58104;52.744;15.242;2024-01-15T11:17:58;6;6;
70554;PMS5003;58104;52.744;15.242;2024-01-15T11:20:17;7;6;
70554;PMS5003;58104;52.744;15.242;2024-01-15T11:22:48;10;8;
70554;PMS5003;58104;52.744;15.242;2024-01-15T11:25:13;6;6;
70554;PMS5003;58104;52.744;15.242;2024-01-15T11:32:23;12;12;
70554;PMS5003;58104;52.744;15.242;2024-01-15T11:34:51;7;7;
70554;PMS5003;58104;52.744;15.242;2024-01-15T11:37:12;8;7;
70554;PMS5003;58104;52.744;15.242;2024-01-15T11:39:39;8;7;
70554;PMS5003;58104;52.744;15.242;2024-01-15T11:42:03;5;5;
70554;PMS5003;58104;52.744;15.242;2024-01-15T11:44:29;7;6;
70554;PMS5003;58104;52.744;15.242;2024-01-15T11:46:57;8;8;
70554;PMS5003;58104;52.744;15.242;2024-01-15T11:49:22;9;5;
70554;PMS5003;58104;52.744;15.242;2024-01-15T11:51:45;7;7;
70554;PMS5003;58104;52.744;15.242;2024-01-15T11:54:10;8;7;
70554;PMS5003;58104;52.744;15.242;2024-01-15T11:56:36;7;7;
70554;PMS5003;58104;52.744;15.242;2024-01-15T11:59:01;8;7;
70554;PMS5003;58104;52.744;15.242;2024-01-15T12:01:27;6;6;
70554;PMS5003;58104;52.744;15.242;2024-01-15T12:03:52;6;6;
70554;PMS5003;58104;52.744;15.242;2024-01-15T12:06:17;10;6;
70554;PMS5003;58104;52.744;15.242;2024-01-15T12:08:43;6;4;
70554;PMS5003;58104;52.744;15.242;2024-01-15T12:11:10;6;5;
70554;PMS5003;58104;52.744;15.242;2024-01-15T12:13:34;5;5;
70554;PMS5003;58104;52.744;15.242;2024-01-15T12:16:01;6;6;
70554;PMS5003;58104;52.744;15.242;2024-01-15T12:18:25;6;6;
70554;PMS5003;58104;52.744;15.242;2024-01-15T12:20:50;4;4;
70554;PMS5003;58104;52.744;15.242;2024-01-15T12:23:16;4;4;
70554;PMS5003;58104;52.744;15.242;2024-01-15T12:25:41;6;5;
70554;PMS5003;58104;52.744;15.242;2024-01-15T12:28:07;9;6;
70554;PMS5003;58104;52.744;15.242;2024-01-15T12:30:34;6;5;
70554;PMS5003;58104;52.744;15.242;2024-01-15T12:32:58;6;6;
70554;PMS5003;58104;52.744;15.242;2024-01-15T12:35:24;5;5;
70554;PMS5003;58104;52.744;15.242;2024-01-15T12:37:48;8;5;
70554;PMS5003;58104;52.744;15.242;2024-01-15T12:40:18;9;8;
70554;PMS5003;58104;52.744;15.242;2024-01-15T12:42:40;6;6;
70554;PMS5003;58104;52.744;15.242;2024-01-15T12:45:06;7;5;
70554;PMS5003;58104;52.744;15.242;2024-01-15T12:47:31;5;4;
70554;PMS5003;58104;52.744;15.242;2024-01-15T12:49:57;5;2;
70554;PMS5003;58104;52.744;15.242;2024-01-15T12:52:22;5;5;
70554;PMS5003;58104;52.744;15.242;2024-01-15T12:54:47;3;3;
70554;PMS5003;58104;52.744;15.242;2024-01-15T12:57:13;6;4;
70554;PMS5003;58104;52.744;15.242;2024-01-15T12:59:38;5;3;
70554;PMS5003;58104;52.744;15.242;2024-01-15T13:02:04;5;5;
70554;PMS5003;58104;52.744;15.242;2024-01-15T13:04:29;6;5;
70554;PMS5003;58104;52.744;15.242;2024-01-15T13:06:54;2;2;
70554;PMS5003;58104;52.744;15.242;2024-01-15T13:09:21;2;2;
70554;PMS5003;58104;52.744;15.242;2024-01-15T13:11:46;1;1;
70554;PMS5003;58104;52.744;15.242;2024-01-15T13:14:11;2;2;
70554;PMS5003;58104;52.744;15.242;2024-01-15T13:16:36;4;4;
70554;PMS5003;58104;52.744;15.242;2024-01-15T13:19:02;4;2;
70554;PMS5003;58104;52.744;15.242;2024-01-15T13:21:27;6;5;
70554;PMS5003;58104;52.744;15.242;2024-01-15T13:23:53;2;2;
70554;PMS5003;58104;52.744;15.242;2024-01-15T13:26:18;2;2;
70554;PMS5003;58104;52.744;15.242;2024-01-15T13:28:44;3;3;
70554;PMS5003;58104;52.744;15.242;2024-01-15T13:31:09;4;4;
70554;PMS5003;58104;52.744;15.242;2024-01-15T13:33:35;2;2;
70554;PMS5003;58104;52.744;15.242;2024-01-15T13:36:00;4;3;
70554;PMS5003;58104;52.744;15.242;2024-01-15T13:38:26;4;4;
70554;PMS5003;58104;52.744;15.242;2024-01-15T13:40:51;3;3;
70554;PMS5003;58104;52.744;15.242;2024-01-15T13:43:17;2;2;
70554;PMS5003;58104;52.744;15.242;2024-01-15T13:45:43;4;3;
70554;PMS5003;58104;52.744;15.242;2024-01-15T13:48:08;3;3;
70554;PMS5003;58104;52.744;15.242;2024-01-15T13:50:33;3;3;
70554;PMS5003;58104;52.744;15.242;2024-01-15T13:52:59;4;3;
70554;PMS5003;58104;52.744;15.242;2024-01-15T13:55:24;4;3;
70554;PMS5003;58104;52.744;15.242;2024-01-15T13:57:51;6;2;
70554;PMS5003;58104;52.744;15.242;2024-01-15T14:00:16;6;4;
70554;PMS5003;58104;52.744;15.242;2024-01-15T14:02:41;3;3;
70554;PMS5003;58104;52.744;15.242;2024-01-15T14:05:06;4;2;
70554;PMS5003;58104;52.744;15.242;2024-01-15T14:07:32;5;4;
70554;PMS5003;58104;52.744;15.242;2024-01-15T14:09:57;8;4;
70554;PMS5003;58104;52.744;15.242;2024-01-15T14:12:23;4;3;
70554;PMS5003;58104;52.744;15.242;2024-01-15T14:14:49;7;7;
70554;PMS5003;58104;52.744;15.242;2024-01-15T14:17:14;4;4;
70554;PMS5003;58104;52.744;15.242;2024-01-15T14:19:40;5;3;
70554;PMS5003;58104;52.744;15.242;2024-01-15T14:22:05;4;4;
70554;PMS5003;58104;52.744;15.242;2024-01-15T14:24:31;4;3;
70554;PMS5003;58104;52.744;15.242;2024-01-15T14:26:56;4;3;
70554;PMS5003;58104;52.744;15.242;2024-01-15T14:29:22;4;4;
70554;PMS5003;58104;52.744;15.242;2024-01-15T14:31:47;3;3;
70554;PMS5003;58104;52.744;15.242;2024-01-15T14:34:13;6;3;
70554;PMS5003;58104;52.744;15.242;2024-01-15T14:36:38;4;4;
70554;PMS5003;58104;52.744;15.242;2024-01-15T14:39:04;2;1;
70554;PMS5003;58104;52.744;15.242;2024-01-15T14:41:29;3;3;
70554;PMS5003;58104;52.744;15.242;2024-01-15T14:43:55;5;2;
70554;PMS5003;58104;52.744;15.242;2024-01-15T14:46:20;5;4;
70554;PMS5003;58104;52.744;15.242;2024-01-15T14:48:46;4;4;
70554;PMS5003;58104;52.744;15.242;2024-01-15T14:51:11;2;2;
70554;PMS5003;58104;52.744;15.242;2024-01-15T14:53:37;5;3;
70554;PMS5003;58104;52.744;15.242;2024-01-15T14:56:02;4;4;
70554;PMS5003;58104;52.744;15.242;2024-01-15T14:58:29;3;3;
70554;PMS5003;58104;52.744;15.242;2024-01-15T15:00:53;2;2;
70554;PMS5003;58104;52.744;15.242;2024-01-15T15:03:19;3;3;
70554;PMS5003;58104;52.744;15.242;2024-01-15T15:05:44;5;3;
70554;PMS5003;58104;52.744;15.242;2024-01-15T15:08:09;5;5;
70554;PMS5003;58104;52.744;15.242;2024-01-15T15:10:35;4;4;
70554;PMS5003;58104;52.744;15.242;2024-01-15T15:13:00;2;2;
70554;PMS5003;58104;52.744;15.242;2024-01-15T15:15:26;3;3;
70554;PMS5003;58104;52.744;15.242;2024-01-15T15:17:51;4;4;
70554;PMS5003;58104;52.744;15.242;2024-01-15T15:20:17;3;3;
70554;PMS5003;58104;52.744;15.242;2024-01-15T15:22:42;4;3;
70554;PMS5003;58104;52.744;15.242;2024-01-15T15:25:08;2;2;
70554;PMS5003;58104;52.744;15.242;2024-01-15T15:27:34;2;2;
70554;PMS5003;58104;52.744;15.242;2024-01-15T15:29:59;3;3;
70554;PMS5003;58104;52.744;15.242;2024-01-15T15:32:24;2;2;
70554;PMS5003;58104;52.744;15.242;2024-01-15T15:34:50;4;4;
70554;PMS5003;58104;52.744;15.242;2024-01-15T15:37:15;3;2;
70554;PMS5003;58104;52.744;15.242;2024-01-15T15:39:41;3;3;
70554;PMS5003;58104;52.744;15.242;2024-01-15T15:42:06;2;2;
70554;PMS5003;58104;52.744;15.242;2024-01-15T15:44:32;5;5;
70554;PMS5003;58104;52.744;15.242;2024-01-15T15:46:57;3;3;
70554;PMS5003;58104;52.744;15.242;2024-01-15T15:49:23;4;4;
70554;PMS5003;58104;52.744;15.242;2024-01-15T15:51:48;5;5;
70554;PMS5003;58104;52.744;15.242;2024-01-15T15:54:14;5;5;
70554;PMS5003;58104;52.744;15.242;2024-01-15T15:56:39;5;4;
70554;PMS5003;58104;52.744;15.242;2024-01-15T15:59:06;7;5;
70554;PMS5003;58104;52.744;15.242;2024-01-15T16:01:30;5;5;
70554;PMS5003;58104;52.744;15.242;2024-01-15T16:03:56;4;2;
70554;PMS5003;58104;52.744;15.242;2024-01-15T16:06:21;5;5;
70554;PMS5003;58104;52.744;15.242;2024-01-15T16:08:47;6;5;
70554;PMS5003;58104;52.744;15.242;2024-01-15T16:11:12;9;4;
70554;PMS5003;58104;52.744;15.242;2024-01-15T16:13:38;4;4;
70554;PMS5003;58104;52.744;15.242;2024-01-15T16:16:03;5;3;